sensor_id;sensor_type;location;lat;lon;timestamp;temperature;humidity
67974;DHT22;54756;51.140;6.952;2024-02-23T00:01:13;7.50;99.90
67974;DHT22;54756;51.140;6.952;2024-02-23T00:03:13;7.40;99.90
67974;DHT22;54756;51.140;6.952;2024-02-23T00:05:14;7.40;99.90
67974;DHT22;54756;51.140;6.952;2024-02-23T00:07:15;7.40;99.90
67974;DHT22;54756;51.140;6.952;2024-02-23T00:09:15;7.30;99.90
67974;DHT22;54756;51.140;6.952;2024-02-23T00:11:16;7.30;99.90
67974;DHT22;54756;51.140;6.952;2024-02-23T00:13:17;7.20;99.90
67974;DHT22;54756;51.140;6.952;2024-02-23T00:15:17;7.20;99.90
67974;DHT22;54756;51.140;6.952;2024-02-23T00:17:18;7.10;99.90
67974;DHT22;54756;51.140;6.952;2024-02-23T00:19:18;7.10;99.90
67974;DHT22;54756;51.140;6.952;2024-02-23T00:21:20;7.10;99.90
67974;DHT22;54756;51.140;6.952;2024-02-23T00:23:21;7.00;99.90
67974;DHT22;54756;51.140;6.952;2024-02-23T00:25:21;7.00;99.90
67974;DHT22;54756;51.140;6.952;2024-02-23T00:27:23;6.90;99.90
67974;DHT22;54756;51.140;6.952;2024-02-23T00:29:24;6.90;99.90
67974;DHT22;54756;51.140;6.952;2024-02-23T00:31:24;6.90;99.90
67974;DHT22;54756;51.140;6.952;2024-02-23T00:33:25;6.80;99.90
67974;DHT22;54756;51.140;6.952;2024-02-23T00:35:26;6.80;99.90
67974;DHT22;54756;51.140;6.952;2024-02-23T00:37:27;6.80;99.90
67974;DHT22;54756;51.140;6.952;2024-02-23T00:39:27;6.70;99.90
67974;DHT22;54756;51.140;6.952;2024-02-23T00:41:28;6.70;99.90
67974;DHT22;54756;51.140;6.952;2024-02-23T00:43:28;6.70;99.90
67974;DHT22;54756;51.140;6.952;2024-02-23T00:45:29;6.70;99.90
67974;DHT22;54756;51.140;6.952;2024-02-23T00:47:30;6.70;99.90
67974;DHT22;54756;51.140;6.952;2024-02-23T00:49:31;6.70;99.90
67974;DHT22;54756;51.140;6.952;2024-02-23T00:51:31;6.70;99.90
67974;DHT22;54756;51.140;6.952;2024-02-23T00:53:32;6.70;99.90
67974;DHT22;54756;51.140;6.952;2024-02-23T00:55:32;6.70;99.90
67974;DHT22;54756;51.140;6.952;2024-02-23T00:57:33;6.60;99.90
67974;DHT22;54756;51.140;6.952;2024-02-23T00:59:33;6.60;99.90
67974;DHT22;54756;51.140;6.952;2024-02-23T01:01:34;6.60;99.90
67974;DHT22;54756;51.140;6.952;2024-02-23T01:03:35;6.60;99.90
67974;DHT22;54756;51.140;6.952;2024-02-23T01:05:35;6.60;99.90
67974;DHT22;54756;51.140;6.952;2024-02-23T01:07:37;6.60;99.90
67974;DHT22;54756;51.140;6.952;2024-02-23T01:09:38;6.60;99.90
67974;DHT22;54756;51.140;6.952;2024-02-23T01:11:38;6.60;99.90
67974;DHT22;54756;51.140;6.952;2024-02-23T01:13:39;6.60;99.90
67974;DHT22;54756;51.140;6.952;2024-02-23T01:15:40;6.60;99.90
67974;DHT22;54756;51.140;6.952;2024-02-23T01:17:41;6.60;99.90
67974;DHT22;54756;51.140;6.952;2024-02-23T01:19:43;6.50;99.90
67974;DHT22;54756;51.140;6.952;2024-02-23T01:21:43;6.50;99.90
67974;DHT22;54756;51.140;6.952;2024-02-23T01:23:44;6.50;99.90
67974;DHT22;54756;51.140;6.952;2024-02-23T01:25:44;6.50;99.90
67974;DHT22;54756;51.140;6.952;2024-02-23T01:27:45;6.50;99.90
67974;DHT22;54756;51.140;6.952;2024-02-23T01:29:45;6.50;99.90
67974;DHT22;54756;51.140;6.952;2024-02-23T01:31:46;6.50;99.90
67974;DHT22;54756;51.140;6.952;2024-02-23T01:33:47;6.50;99.90
67974;DHT22;54756;51.140;6.952;2024-02-23T01:35:47;6.50;99.90
67974;DHT22;54756;51.140;6.952;2024-02-23T01:37:48;6.50;99.90
67974;DHT22;54756;51.140;6.952;2024-02-23T01:39:48;6.50;99.90
67974;DHT22;54756;51.140;6.952;2024-02-23T01:41:49;6.50;99.90
67974;DHT22;54756;51.140;6.952;2024-02-23T01:43:49;6.50;99.90
67974;DHT22;54756;51.140;6.952;2024-02-23T01:45:51;6.50;99.90
67974;DHT22;54756;51.140;6.952;2024-02-23T01:47:52;6.40;99.90
67974;DHT22;54756;51.140;6.952;2024-02-23T01:49:54;6.50;99.90
67974;DHT22;54756;51.140;6.952;2024-02-23T01:51:58;6.40;99.90
67974;DHT22;54756;51.140;6.952;2024-02-23T01:53:59;6.40;99.90
67974;DHT22;54756;51.140;6.952;2024-02-23T01:56:00;6.40;99.90
67974;DHT22;54756;51.140;6.952;2024-02-23T01:58:01;6.40;99.90
67974;DHT22;54756;51.140;6.952;2024-02-23T02:00:02;6.40;99.90
67974;DHT22;54756;51.140;6.952;2024-02-23T02:02:03;6.30;99.90
67974;DHT22;54756;51.140;6.952;2024-02-23T02:04:03;6.30;99.90
67974;DHT22;54756;51.140;6.952;2024-02-23T02:06:05;6.30;99.90
67974;DHT22;54756;51.140;6.952;2024-02-23T02:08:07;6.30;99.90
67974;DHT22;54756;51.140;6.952;2024-02-23T02:10:09;6.30;99.90
67974;DHT22;54756;51.140;6.952;2024-02-23T02:12:09;6.20;99.90
67974;DHT22;54756;51.140;6.952;2024-02-23T02:14:10;6.20;99.90
67974;DHT22;54756;51.140;6.952;2024-02-23T02:16:11;6.20;99.90
67974;DHT22;54756;51.140;6.952;2024-02-23T02:18:11;6.20;99.90
67974;DHT22;54756;51.140;6.952;2024-02-23T02:20:12;6.20;99.90
67974;DHT22;54756;51.140;6.952;2024-02-23T02:22:16;6.20;99.90
67974;DHT22;54756;51.140;6.952;2024-02-23T02:24:16;6.20;99.90
67974;DHT22;54756;51.140;6.952;2024-02-23T02:26:17;6.10;99.90
67974;DHT22;54756;51.140;6.952;2024-02-23T02:28:17;6.10;99.90
67974;DHT22;54756;51.140;6.952;2024-02-23T02:30:18;6.10;99.90
67974;DHT22;54756;51.140;6.952;2024-02-23T02:32:19;6.10;99.90
67974;DHT22;54756;51.140;6.952;2024-02-23T02:34:19;6.10;99.90
67974;DHT22;54756;51.140;6.952;2024-02-23T02:36:20;6.00;99.90
67974;DHT22;54756;51.140;6.952;2024-02-23T02:38:20;6.00;99.90
67974;DHT22;54756;51.140;6.952;2024-02-23T02:40:21;6.00;99.90
67974;DHT22;54756;51.140;6.952;2024-02-23T02:42:21;6.00;99.90
67974;DHT22;54756;51.140;6.952;2024-02-23T02:44:22;6.00;99.90
67974;DHT22;54756;51.140;6.952;2024-02-23T02:46:22;5.90;99.90
67974;DHT22;54756;51.140;6.952;2024-02-23T02:48:23;5.90;99.90
67974;DHT22;54756;51.140;6.952;2024-02-23T02:50:24;5.90;99.90
67974;DHT22;54756;51.140;6.952;2024-02-23T02:52:25;5.90;99.90
67974;DHT22;54756;51.140;6.952;2024-02-23T02:54:25;5.90;99.90
67974;DHT22;54756;51.140;6.952;2024-02-23T02:56:26;5.90;99.90
67974;DHT22;54756;51.140;6.952;2024-02-23T02:58:26;5.90;99.90
67974;DHT22;54756;51.140;6.952;2024-02-23T03:00:27;5.90;99.90
67974;DHT22;54756;51.140;6.952;2024-02-23T03:02:28;5.90;99.90
67974;DHT22;54756;51.140;6.952;2024-02-23T03:04:28;5.90;99.90
67974;DHT22;54756;51.140;6.952;2024-02-23T03:06:29;5.90;99.90
67974;DHT22;54756;51.140;6.952;2024-02-23T03:08:29;5.90;99.90
67974;DHT22;54756;51.140;6.952;2024-02-23T03:10:30;5.80;99.90
67974;DHT22;54756;51.140;6.952;2024-02-23T03:12:31;5.90;99.90
67974;DHT22;54756;51.140;6.952;2024-02-23T03:14:31;5.90;99.90
67974;DHT22;54756;51.140;6.952;2024-02-23T03:16:32;5.90;99.90
67974;DHT22;54756;51.140;6.952;2024-02-23T03:18:34;5.80;99.90
67974;DHT22;54756;51.140;6.952;2024-02-23T03:20:35;5.80;99.90
67974;DHT22;54756;51.140;6.952;2024-02-23T03:22:36;5.80;99.90
67974;DHT22;54756;51.140;6.952;2024-02-23T03:24:36;5.90;99.90
67974;DHT22;54756;51.140;6.952;2024-02-23T03:26:38;5.80;99.90
67974;DHT22;54756;51.140;6.952;2024-02-23T03:28:38;5.80;99.90
67974;DHT22;54756;51.140;6.952;2024-02-23T03:30:39;5.80;99.90
67974;DHT22;54756;51.140;6.952;2024-02-23T03:32:39;5.80;99.90
67974;DHT22;54756;51.140;6.952;2024-02-23T03:34:40;5.80;99.90
67974;DHT22;54756;51.140;6.952;2024-02-23T03:36:40;5.80;99.90
67974;DHT22;54756;51.140;6.952;2024-02-23T03:38:41;5.80;99.90
67974;DHT22;54756;51.140;6.952;2024-02-23T03:40:41;5.80;99.90
67974;DHT22;54756;51.140;6.952;2024-02-23T03:42:42;5.80;99.90
67974;DHT22;54756;51.140;6.952;2024-02-23T03:44:43;5.80;99.90
67974;DHT22;54756;51.140;6.952;2024-02-23T03:46:43;5.80;99.90
67974;DHT22;54756;51.140;6.952;2024-02-23T03:48:45;5.80;99.90
67974;DHT22;54756;51.140;6.952;2024-02-23T03:50:46;5.80;99.90
67974;DHT22;54756;51.140;6.952;2024-02-23T03:52:46;5.80;99.90
67974;DHT22;54756;51.140;6.952;2024-02-23T03:54:47;5.80;99.90
67974;DHT22;54756;51.140;6.952;2024-02-23T03:56:47;5.80;99.90
67974;DHT22;54756;51.140;6.952;2024-02-23T03:58:48;5.80;99.90
67974;DHT22;54756;51.140;6.952;2024-02-23T04:00:48;5.80;99.90
67974;DHT22;54756;51.140;6.952;2024-02-23T04:02:49;5.80;99.90
67974;DHT22;54756;51.140;6.952;2024-02-23T04:04:50;5.80;99.90
67974;DHT22;54756;51.140;6.952;2024-02-23T04:06:50;5.80;99.90
67974;DHT22;54756;51.140;6.952;2024-02-23T04:08:51;5.80;99.90
67974;DHT22;54756;51.140;6.952;2024-02-23T04:10:51;5.80;99.90
67974;DHT22;54756;51.140;6.952;2024-02-23T04:12:52;5.80;99.90
67974;DHT22;54756;51.140;6.952;2024-02-23T04:14:52;5.80;99.90
67974;DHT22;54756;51.140;6.952;2024-02-23T04:16:53;5.80;99.90
67974;DHT22;54756;51.140;6.952;2024-02-23T04:18:54;5.80;99.90
67974;DHT22;54756;51.140;6.952;2024-02-23T04:20:54;5.80;99.90
67974;DHT22;54756;51.140;6.952;2024-02-23T04:22:55;5.80;99.90
67974;DHT22;54756;51.140;6.952;2024-02-23T04:24:55;5.80;99.90
67974;DHT22;54756;51.140;6.952;2024-02-23T04:26:56;5.80;99.90
67974;DHT22;54756;51.140;6.952;2024-02-23T04:28:56;5.80;99.90
67974;DHT22;54756;51.140;6.952;2024-02-23T04:30:57;5.80;99.90
67974;DHT22;54756;51.140;6.952;2024-02-23T04:32:58;5.90;99.90
67974;DHT22;54756;51.140;6.952;2024-02-23T04:34:58;5.90;99.90
67974;DHT22;54756;51.140;6.952;2024-02-23T04:36:59;5.90;99.90
67974;DHT22;54756;51.140;6.952;2024-02-23T04:38:59;5.90;99.90
67974;DHT22;54756;51.140;6.952;2024-02-23T04:41:03;5.90;99.90
67974;DHT22;54756;51.140;6.952;2024-02-23T04:43:04;5.90;99.90
67974;DHT22;54756;51.140;6.952;2024-02-23T04:45:05;5.90;99.90
67974;DHT22;54756;51.140;6.952;2024-02-23T04:47:06;5.90;99.90
67974;DHT22;54756;51.140;6.952;2024-02-23T04:49:06;6.00;99.90
67974;DHT22;54756;51.140;6.952;2024-02-23T04:51:07;6.00;99.90
67974;DHT22;54756;51.140;6.952;2024-02-23T04:53:10;6.00;99.90
67974;DHT22;54756;51.140;6.952;2024-02-23T04:55:10;6.00;99.90
67974;DHT22;54756;51.140;6.952;2024-02-23T04:57:11;6.00;99.90
67974;DHT22;54756;51.140;6.952;2024-02-23T04:59:11;6.00;99.90
67974;DHT22;54756;51.140;6.952;2024-02-23T05:01:12;6.00;99.90
67974;DHT22;54756;51.140;6.952;2024-02-23T05:03:13;6.10;99.90
67974;DHT22;54756;51.140;6.952;2024-02-23T05:05:15;6.00;99.90
67974;DHT22;54756;51.140;6.952;2024-02-23T05:07:15;6.10;99.90
67974;DHT22;54756;51.140;6.952;2024-02-23T05:09:16;6.00;99.90
67974;DHT22;54756;51.140;6.952;2024-02-23T05:11:16;6.00;99.90
67974;DHT22;54756;51.140;6.952;2024-02-23T05:13:17;6.10;99.90
67974;DHT22;54756;51.140;6.952;2024-02-23T05:15:18;6.10;99.90
67974;DHT22;54756;51.140;6.952;2024-02-23T05:17:18;6.10;99.90
67974;DHT22;54756;51.140;6.952;2024-02-23T05:19:19;6.10;99.90
67974;DHT22;54756;51.140;6.952;2024-02-23T05:21:19;6.10;99.90
67974;DHT22;54756;51.140;6.952;2024-02-23T05:23:20;6.10;99.90
67974;DHT22;54756;51.140;6.952;2024-02-23T05:25:20;6.10;99.90
67974;DHT22;54756;51.140;6.952;2024-02-23T05:27:21;6.10;99.90
67974;DHT22;54756;51.140;6.952;2024-02-23T05:29:21;6.10;99.90
67974;DHT22;54756;51.140;6.952;2024-02-23T05:31:44;6.10;99.90
67974;DHT22;54756;51.140;6.952;2024-02-23T05:33:44;6.10;99.90
67974;DHT22;54756;51.140;6.952;2024-02-23T05:35:45;6.10;99.90
67974;DHT22;54756;51.140;6.952;2024-02-23T05:37:45;6.10;99.90
67974;DHT22;54756;51.140;6.952;2024-02-23T05:39:46;6.10;99.90
67974;DHT22;54756;51.140;6.952;2024-02-23T05:41:47;6.10;99.90
67974;DHT22;54756;51.140;6.952;2024-02-23T05:43:47;6.10;99.90
67974;DHT22;54756;51.140;6.952;2024-02-23T05:45:48;6.10;99.90
67974;DHT22;54756;51.140;6.952;2024-02-23T05:47:48;6.10;99.90
67974;DHT22;54756;51.140;6.952;2024-02-23T05:49:50;6.10;99.90
67974;DHT22;54756;51.140;6.952;2024-02-23T05:51:51;6.10;99.90
67974;DHT22;54756;51.140;6.952;2024-02-23T05:53:52;6.10;99.90
67974;DHT22;54756;51.140;6.952;2024-02-23T05:55:53;6.10;99.90
67974;DHT22;54756;51.140;6.952;2024-02-23T05:57:53;6.10;99.90
67974;DHT22;54756;51.140;6.952;2024-02-23T05:59:54;6.10;99.90
67974;DHT22;54756;51.140;6.952;2024-02-23T06:01:56;6.10;99.90
67974;DHT22;54756;51.140;6.952;2024-02-23T06:03:59;6.10;99.90
67974;DHT22;54756;51.140;6.952;2024-02-23T06:05:59;6.10;99.90
67974;DHT22;54756;51.140;6.952;2024-02-23T06:08:00;6.10;99.90
67974;DHT22;54756;51.140;6.952;2024-02-23T06:10:01;6.10;99.90
67974;DHT22;54756;51.140;6.952;2024-02-23T06:12:02;6.10;99.90
67974;DHT22;54756;51.140;6.952;2024-02-23T06:14:03;6.10;99.90
67974;DHT22;54756;51.140;6.952;2024-02-23T06:16:04;6.10;99.90
67974;DHT22;54756;51.140;6.952;2024-02-23T06:18:05;6.10;99.90
67974;DHT22;54756;51.140;6.952;2024-02-23T06:20:06;6.10;99.90
67974;DHT22;54756;51.140;6.952;2024-02-23T06:22:08;6.10;99.90
67974;DHT22;54756;51.140;6.952;2024-02-23T06:24:10;6.00;99.90
67974;DHT22;54756;51.140;6.952;2024-02-23T06:26:11;6.00;99.90
67974;DHT22;54756;51.140;6.952;2024-02-23T06:28:11;6.00;99.90
67974;DHT22;54756;51.140;6.952;2024-02-23T06:30:12;6.10;99.90
67974;DHT22;54756;51.140;6.952;2024-02-23T06:32:13;6.00;99.90
67974;DHT22;54756;51.140;6.952;2024-02-23T06:34:13;6.10;99.90
67974;DHT22;54756;51.140;6.952;2024-02-23T06:36:14;6.00;99.90
67974;DHT22;54756;51.140;6.952;2024-02-23T06:38:14;6.00;99.90
67974;DHT22;54756;51.140;6.952;2024-02-23T06:40:15;6.00;99.90
67974;DHT22;54756;51.140;6.952;2024-02-23T06:42:15;6.10;99.90
67974;DHT22;54756;51.140;6.952;2024-02-23T06:44:16;6.00;99.90
67974;DHT22;54756;51.140;6.952;2024-02-23T06:46:19;6.00;99.90
67974;DHT22;54756;51.140;6.952;2024-02-23T06:48:21;6.00;99.90
67974;DHT22;54756;51.140;6.952;2024-02-23T06:50:21;6.00;99.90
67974;DHT22;54756;51.140;6.952;2024-02-23T06:52:22;6.00;99.90
67974;DHT22;54756;51.140;6.952;2024-02-23T06:54:23;6.00;99.90
67974;DHT22;54756;51.140;6.952;2024-02-23T06:56:24;6.00;99.90
67974;DHT22;54756;51.140;6.952;2024-02-23T06:58:24;6.00;99.90
67974;DHT22;54756;51.140;6.952;2024-02-23T07:00:25;6.10;99.90
67974;DHT22;54756;51.140;6.952;2024-02-23T07:02:25;6.00;99.90
67974;DHT22;54756;51.140;6.952;2024-02-23T07:04:26;6.00;99.90
67974;DHT22;54756;51.140;6.952;2024-02-23T07:06:27;6.00;99.90
67974;DHT22;54756;51.140;6.952;2024-02-23T07:08:31;6.00;99.90
67974;DHT22;54756;51.140;6.952;2024-02-23T07:10:31;6.00;99.90
67974;DHT22;54756;51.140;6.952;2024-02-23T07:12:32;5.90;99.90
67974;DHT22;54756;51.140;6.952;2024-02-23T07:14:32;6.00;99.90
67974;DHT22;54756;51.140;6.952;2024-02-23T07:16:33;5.90;99.90
67974;DHT22;54756;51.140;6.952;2024-02-23T07:18:37;5.90;99.90
67974;DHT22;54756;51.140;6.952;2024-02-23T07:20:38;5.90;99.90
67974;DHT22;54756;51.140;6.952;2024-02-23T07:22:38;6.00;99.90
67974;DHT22;54756;51.140;6.952;2024-02-23T07:24:40;6.00;99.90
67974;DHT22;54756;51.140;6.952;2024-02-23T07:26:41;6.00;99.90
67974;DHT22;54756;51.140;6.952;2024-02-23T07:28:41;5.90;99.90
67974;DHT22;54756;51.140;6.952;2024-02-23T07:30:42;5.90;99.90
67974;DHT22;54756;51.140;6.952;2024-02-23T07:32:43;5.90;99.90
67974;DHT22;54756;51.140;6.952;2024-02-23T07:34:44;5.90;99.90
67974;DHT22;54756;51.140;6.952;2024-02-23T07:36:44;6.00;99.90
67974;DHT22;54756;51.140;6.952;2024-02-23T07:38:47;6.00;99.90
67974;DHT22;54756;51.140;6.952;2024-02-23T07:40:48;6.00;99.90
67974;DHT22;54756;51.140;6.952;2024-02-23T07:42:48;6.00;99.90
67974;DHT22;54756;51.140;6.952;2024-02-23T07:44:49;6.00;99.90
67974;DHT22;54756;51.140;6.952;2024-02-23T07:46:49;6.00;99.90
67974;DHT22;54756;51.140;6.952;2024-02-23T07:48:52;6.00;99.90
67974;DHT22;54756;51.140;6.952;2024-02-23T07:50:53;6.00;99.90
67974;DHT22;54756;51.140;6.952;2024-02-23T07:52:53;6.00;99.90
67974;DHT22;54756;51.140;6.952;2024-02-23T07:54:54;6.10;99.90
67974;DHT22;54756;51.140;6.952;2024-02-23T07:56:55;6.10;99.90
67974;DHT22;54756;51.140;6.952;2024-02-23T07:58:55;6.10;99.90
67974;DHT22;54756;51.140;6.952;2024-02-23T08:00:56;6.10;99.90
67974;DHT22;54756;51.140;6.952;2024-02-23T08:02:57;6.10;99.90
67974;DHT22;54756;51.140;6.952;2024-02-23T08:04:58;6.10;99.90
67974;DHT22;54756;51.140;6.952;2024-02-23T08:06:59;6.10;99.90
67974;DHT22;54756;51.140;6.952;2024-02-23T08:09:00;6.10;99.90
67974;DHT22;54756;51.140;6.952;2024-02-23T08:11:01;6.20;99.90
67974;DHT22;54756;51.140;6.952;2024-02-23T08:13:03;6.20;99.90
67974;DHT22;54756;51.140;6.952;2024-02-23T08:15:04;6.20;99.90
67974;DHT22;54756;51.140;6.952;2024-02-23T08:17:05;6.20;99.90
67974;DHT22;54756;51.140;6.952;2024-02-23T08:19:05;6.20;99.90
67974;DHT22;54756;51.140;6.952;2024-02-23T08:21:06;6.20;99.90
67974;DHT22;54756;51.140;6.952;2024-02-23T08:23:07;6.30;99.90
67974;DHT22;54756;51.140;6.952;2024-02-23T08:25:09;6.30;99.90
67974;DHT22;54756;51.140;6.952;2024-02-23T08:27:10;6.30;99.90
67974;DHT22;54756;51.140;6.952;2024-02-23T08:29:10;6.40;99.90
67974;DHT22;54756;51.140;6.952;2024-02-23T08:31:11;6.40;99.90
67974;DHT22;54756;51.140;6.952;2024-02-23T08:33:11;6.40;99.90
67974;DHT22;54756;51.140;6.952;2024-02-23T08:35:12;6.40;99.90
67974;DHT22;54756;51.140;6.952;2024-02-23T08:37:12;6.40;99.90
67974;DHT22;54756;51.140;6.952;2024-02-23T08:39:13;6.50;99.90
67974;DHT22;54756;51.140;6.952;2024-02-23T08:41:13;6.50;99.90
67974;DHT22;54756;51.140;6.952;2024-02-23T08:43:15;6.50;99.90
67974;DHT22;54756;51.140;6.952;2024-02-23T08:45:15;6.50;99.90
67974;DHT22;54756;51.140;6.952;2024-02-23T08:47:16;6.60;99.90
67974;DHT22;54756;51.140;6.952;2024-02-23T08:49:17;6.60;99.90
67974;DHT22;54756;51.140;6.952;2024-02-23T08:51:17;6.60;99.90
67974;DHT22;54756;51.140;6.952;2024-02-23T08:53:18;6.70;99.90
67974;DHT22;54756;51.140;6.952;2024-02-23T08:55:18;6.70;99.90
67974;DHT22;54756;51.140;6.952;2024-02-23T08:57:19;6.70;99.90
67974;DHT22;54756;51.140;6.952;2024-02-23T08:59:20;6.80;99.90
67974;DHT22;54756;51.140;6.952;2024-02-23T09:01:21;6.80;99.90
67974;DHT22;54756;51.140;6.952;2024-02-23T09:03:22;6.90;99.90
67974;DHT22;54756;51.140;6.952;2024-02-23T09:05:22;6.90;99.90
67974;DHT22;54756;51.140;6.952;2024-02-23T09:07:23;6.90;99.90
67974;DHT22;54756;51.140;6.952;2024-02-23T09:09:24;6.90;99.90
67974;DHT22;54756;51.140;6.952;2024-02-23T09:11:25;6.90;99.90
67974;DHT22;54756;51.140;6.952;2024-02-23T09:13:26;7.00;99.90
67974;DHT22;54756;51.140;6.952;2024-02-23T09:15:27;7.00;99.90
67974;DHT22;54756;51.140;6.952;2024-02-23T09:17:28;7.00;99.90
67974;DHT22;54756;51.140;6.952;2024-02-23T09:19:28;7.00;99.90
67974;DHT22;54756;51.140;6.952;2024-02-23T09:21:29;7.00;99.90
67974;DHT22;54756;51.140;6.952;2024-02-23T09:23:29;7.00;99.90
67974;DHT22;54756;51.140;6.952;2024-02-23T09:25:30;7.10;99.90
67974;DHT22;54756;51.140;6.952;2024-02-23T09:27:31;7.10;99.90
67974;DHT22;54756;51.140;6.952;2024-02-23T09:29:31;7.10;99.90
67974;DHT22;54756;51.140;6.952;2024-02-23T09:31:32;7.10;99.90
67974;DHT22;54756;51.140;6.952;2024-02-23T09:33:33;7.20;99.90
67974;DHT22;54756;51.140;6.952;2024-02-23T09:35:34;7.20;99.90
67974;DHT22;54756;51.140;6.952;2024-02-23T09:37:34;7.30;99.90
67974;DHT22;54756;51.140;6.952;2024-02-23T09:39:35;7.30;99.90
67974;DHT22;54756;51.140;6.952;2024-02-23T09:41:36;7.30;99.90
67974;DHT22;54756;51.140;6.952;2024-02-23T09:43:38;7.30;99.90
67974;DHT22;54756;51.140;6.952;2024-02-23T09:45:39;7.40;99.90
67974;DHT22;54756;51.140;6.952;2024-02-23T09:47:40;7.40;99.90
67974;DHT22;54756;51.140;6.952;2024-02-23T09:49:41;7.40;99.90
67974;DHT22;54756;51.140;6.952;2024-02-23T09:51:42;7.40;99.90
67974;DHT22;54756;51.140;6.952;2024-02-23T09:53:43;7.40;99.90
67974;DHT22;54756;51.140;6.952;2024-02-23T09:55:44;7.50;99.90
67974;DHT22;54756;51.140;6.952;2024-02-23T09:57:48;7.50;99.90
67974;DHT22;54756;51.140;6.952;2024-02-23T09:59:48;7.50;99.90
67974;DHT22;54756;51.140;6.952;2024-02-23T10:01:50;7.50;99.90
67974;DHT22;54756;51.140;6.952;2024-02-23T10:03:56;7.50;99.90
67974;DHT22;54756;51.140;6.952;2024-02-23T10:05:57;7.60;99.90
67974;DHT22;54756;51.140;6.952;2024-02-23T10:07:58;7.60;99.90
67974;DHT22;54756;51.140;6.952;2024-02-23T10:09:59;7.60;99.90
67974;DHT22;54756;51.140;6.952;2024-02-23T10:11:59;7.60;99.90
67974;DHT22;54756;51.140;6.952;2024-02-23T10:14:00;7.60;99.90
67974;DHT22;54756;51.140;6.952;2024-02-23T10:16:00;7.60;99.90
67974;DHT22;54756;51.140;6.952;2024-02-23T10:18:01;7.60;99.90
67974;DHT22;54756;51.140;6.952;2024-02-23T10:20:01;7.60;99.90
67974;DHT22;54756;51.140;6.952;2024-02-23T10:22:05;7.70;99.90
67974;DHT22;54756;51.140;6.952;2024-02-23T10:24:06;7.70;99.90
67974;DHT22;54756;51.140;6.952;2024-02-23T10:26:07;7.70;99.90
67974;DHT22;54756;51.140;6.952;2024-02-23T10:28:08;7.70;99.90
67974;DHT22;54756;51.140;6.952;2024-02-23T10:30:10;7.80;99.90
67974;DHT22;54756;51.140;6.952;2024-02-23T10:32:14;7.80;99.90
67974;DHT22;54756;51.140;6.952;2024-02-23T10:34:18;7.80;99.90
67974;DHT22;54756;51.140;6.952;2024-02-23T10:36:19;7.90;99.90
67974;DHT22;54756;51.140;6.952;2024-02-23T10:38:22;7.90;99.90
67974;DHT22;54756;51.140;6.952;2024-02-23T10:40:24;7.90;99.90
67974;DHT22;54756;51.140;6.952;2024-02-23T10:42:34;7.90;99.90
67974;DHT22;54756;51.140;6.952;2024-02-23T10:44:37;8.00;99.90
67974;DHT22;54756;51.140;6.952;2024-02-23T10:46:37;8.00;99.90
67974;DHT22;54756;51.140;6.952;2024-02-23T10:48:42;8.00;99.90
67974;DHT22;54756;51.140;6.952;2024-02-23T10:50:43;8.00;99.90
67974;DHT22;54756;51.140;6.952;2024-02-23T10:52:45;8.00;99.90
67974;DHT22;54756;51.140;6.952;2024-02-23T10:54:47;8.10;99.90
67974;DHT22;54756;51.140;6.952;2024-02-23T10:56:50;8.10;99.90
67974;DHT22;54756;51.140;6.952;2024-02-23T10:58:51;8.10;99.90
67974;DHT22;54756;51.140;6.952;2024-02-23T11:00:53;8.10;99.90
67974;DHT22;54756;51.140;6.952;2024-02-23T11:03:00;8.10;99.90
67974;DHT22;54756;51.140;6.952;2024-02-23T11:05:01;8.10;99.90
67974;DHT22;54756;51.140;6.952;2024-02-23T11:07:13;8.10;99.90
67974;DHT22;54756;51.140;6.952;2024-02-23T11:09:14;8.10;99.90
67974;DHT22;54756;51.140;6.952;2024-02-23T11:11:16;8.10;99.90
67974;DHT22;54756;51.140;6.952;2024-02-23T11:13:17;8.10;99.90
67974;DHT22;54756;51.140;6.952;2024-02-23T11:15:28;8.10;99.90
67974;DHT22;54756;51.140;6.952;2024-02-23T11:17:30;8.10;99.90
67974;DHT22;54756;51.140;6.952;2024-02-23T11:19:35;8.10;99.90
67974;DHT22;54756;51.140;6.952;2024-02-23T11:21:37;8.10;99.90
67974;DHT22;54756;51.140;6.952;2024-02-23T11:23:44;8.10;99.90
67974;DHT22;54756;51.140;6.952;2024-02-23T11:26:04;8.10;99.90
67974;DHT22;54756;51.140;6.952;2024-02-23T11:28:06;8.10;99.90
67974;DHT22;54756;51.140;6.952;2024-02-23T11:30:08;8.10;99.90
67974;DHT22;54756;51.140;6.952;2024-02-23T11:32:14;8.10;99.90
67974;DHT22;54756;51.140;6.952;2024-02-23T11:34:22;8.10;99.90
67974;DHT22;54756;51.140;6.952;2024-02-23T11:36:24;8.10;99.90
67974;DHT22;54756;51.140;6.952;2024-02-23T11:38:26;8.10;99.90
67974;DHT22;54756;51.140;6.952;2024-02-23T11:40:31;8.10;99.90
67974;DHT22;54756;51.140;6.952;2024-02-23T11:42:33;8.10;99.90
67974;DHT22;54756;51.140;6.952;2024-02-23T11:44:35;8.10;99.90
67974;DHT22;54756;51.140;6.952;2024-02-23T11:46:35;8.10;99.90
67974;DHT22;54756;51.140;6.952;2024-02-23T11:48:36;8.10;99.90
67974;DHT22;54756;51.140;6.952;2024-02-23T11:50:37;8.10;99.90
67974;DHT22;54756;51.140;6.952;2024-02-23T11:52:40;8.20;99.90
67974;DHT22;54756;51.140;6.952;2024-02-23T11:54:41;8.10;99.90
67974;DHT22;54756;51.140;6.952;2024-02-23T11:56:41;8.10;99.90
67974;DHT22;54756;51.140;6.952;2024-02-23T11:58:42;8.20;99.90
67974;DHT22;54756;51.140;6.952;2024-02-23T12:00:43;8.20;99.90
67974;DHT22;54756;51.140;6.952;2024-02-23T12:02:44;8.20;99.90
67974;DHT22;54756;51.140;6.952;2024-02-23T12:04:49;8.20;99.90
67974;DHT22;54756;51.140;6.952;2024-02-23T12:06:49;8.20;99.90
67974;DHT22;54756;51.140;6.952;2024-02-23T12:08:50;8.20;99.90
67974;DHT22;54756;51.140;6.952;2024-02-23T12:10:52;8.30;99.90
67974;DHT22;54756;51.140;6.952;2024-02-23T12:12:53;8.30;99.90
67974;DHT22;54756;51.140;6.952;2024-02-23T12:14:54;8.30;99.90
67974;DHT22;54756;51.140;6.952;2024-02-23T12:16:57;8.30;99.90
67974;DHT22;54756;51.140;6.952;2024-02-23T12:18:58;8.30;99.90
67974;DHT22;54756;51.140;6.952;2024-02-23T12:21:05;8.30;99.90
67974;DHT22;54756;51.140;6.952;2024-02-23T12:23:06;8.30;99.90
67974;DHT22;54756;51.140;6.952;2024-02-23T12:25:12;8.30;99.90
67974;DHT22;54756;51.140;6.952;2024-02-23T12:27:17;8.30;99.90
67974;DHT22;54756;51.140;6.952;2024-02-23T12:29:18;8.30;99.90
67974;DHT22;54756;51.140;6.952;2024-02-23T12:31:24;8.30;99.90
67974;DHT22;54756;51.140;6.952;2024-02-23T12:33:31;8.40;99.90
67974;DHT22;54756;51.140;6.952;2024-02-23T12:35:31;8.30;99.90
67974;DHT22;54756;51.140;6.952;2024-02-23T12:37:36;8.30;99.90
67974;DHT22;54756;51.140;6.952;2024-02-23T12:39:37;8.30;99.90
67974;DHT22;54756;51.140;6.952;2024-02-23T12:41:37;8.30;99.90
67974;DHT22;54756;51.140;6.952;2024-02-23T12:43:38;8.30;99.90
67974;DHT22;54756;51.140;6.952;2024-02-23T12:45:39;8.30;99.90
67974;DHT22;54756;51.140;6.952;2024-02-23T12:47:39;8.30;99.90
67974;DHT22;54756;51.140;6.952;2024-02-23T12:49:40;8.30;99.90
67974;DHT22;54756;51.140;6.952;2024-02-23T12:51:41;8.30;99.90
67974;DHT22;54756;51.140;6.952;2024-02-23T12:53:42;8.40;99.90
67974;DHT22;54756;51.140;6.952;2024-02-23T12:55:44;8.40;99.90
67974;DHT22;54756;51.140;6.952;2024-02-23T12:57:44;8.40;99.90